Jigger, Louisiana
Current Conditions -  °F | °C
As of 9:53 AM on Wednesday 22 Oct 2014 (Local Time) from KMLU Reporting Station
Clear Clear  
Wind Chill: 66°   Ceiling: Unl
Heat Index: 66°   Visibility: 10mi
Dew Point: 53°   Wind: 6mph
Humidity: 63%   Direction: 60°ENE
Pressure: 30.18"   Gusts: NA
Location:  32.04°N, 91.75°W
Report Text: KMLU 221453Z 06005KT 10SM CLR 19/12 A3018 RMK AO2 SLP221 T01890117 51018
Loading
Personal Weather Stations






























Interactive Weather Map
Tropical Storm Tracking
New forecast layout! Learn more

10-Day Weather Forecast

Advertisements
Track Severe Weather on mobile